createdAt,value
2019-05-02T00:00:15.694Z,14.10
2019-05-02T00:02:45.094Z,14.90
2019-05-02T00:05:14.934Z,12.18
2019-05-02T00:07:44.068Z,14.45
2019-05-02T00:10:15.040Z,14.47
2019-05-02T00:12:44.815Z,13.90
2019-05-02T00:15:14.040Z,11.68
2019-05-02T00:17:43.327Z,12.28
2019-05-02T00:20:12.563Z,10.15
2019-05-02T00:22:41.697Z,15.93
2019-05-02T00:25:11.061Z,10.23
2019-05-02T00:27:41.758Z,11.22
2019-05-02T00:30:11.134Z,15.43
2019-05-02T00:32:40.348Z,13.53
2019-05-02T00:35:09.583Z,14.68
2019-05-02T00:37:38.723Z,16.10
2019-05-02T00:40:08.214Z,12.30
2019-05-02T00:42:37.406Z,12.37
2019-05-02T00:45:06.558Z,11.48
2019-05-02T00:47:37.427Z,9.78
2019-05-02T00:50:11.343Z,11.57
2019-05-02T00:52:39.404Z,11.83
2019-05-02T00:55:08.564Z,13.58
2019-05-02T00:57:37.837Z,10.15
2019-05-02T01:00:07.001Z,11.88
2019-05-02T01:02:40.663Z,12.03
2019-05-02T01:05:08.908Z,12.07
2019-05-02T01:07:38.104Z,12.35
2019-05-02T01:10:07.336Z,10.90
2019-05-02T01:12:40.054Z,11.08
2019-05-02T01:15:08.432Z,12.88
2019-05-02T01:17:38.572Z,12.13
2019-05-02T01:20:07.824Z,13.20
2019-05-02T01:22:37.930Z,12.70
2019-05-02T01:25:15.103Z,13.15
2019-05-02T01:27:41.231Z,11.05
2019-05-02T01:30:25.236Z,9.10
2019-05-02T01:32:56.028Z,13.08
2019-05-02T01:35:41.766Z,12.18
2019-05-02T01:38:26.394Z,12.53
2019-05-02T01:40:55.075Z,12.55
2019-05-02T01:43:26.535Z,13.53
2019-05-02T01:45:55.832Z,12.30
2019-05-02T01:48:25.467Z,10.28
2019-05-02T01:50:54.618Z,12.05
2019-05-02T01:53:23.796Z,10.72
2019-05-02T01:55:57.351Z,11.43
2019-05-02T01:58:23.878Z,12.55
2019-05-02T02:00:53.095Z,12.80
2019-05-02T02:03:22.364Z,11.57
2019-05-02T02:05:51.721Z,11.28
2019-05-02T02:08:20.926Z,10.15
2019-05-02T02:10:50.560Z,13.45
2019-05-02T02:13:21.111Z,12.82
2019-05-02T02:15:50.225Z,12.58
2019-05-02T02:18:22.200Z,9.98
2019-05-02T02:20:53.290Z,10.83
2019-05-02T02:23:27.049Z,12.33
2019-05-02T02:25:57.885Z,9.23
2019-05-02T02:28:32.032Z,10.30
2019-05-02T02:31:04.961Z,9.30
2019-05-02T02:33:28.818Z,8.48
2019-05-02T02:35:58.098Z,9.38
2019-05-02T02:38:33.498Z,8.73
2019-05-02T02:40:58.154Z,9.40
2019-05-02T02:43:34.085Z,12.63
2019-05-02T02:46:13.385Z,12.82
2019-05-02T02:51:22.248Z,11.03
2019-05-02T02:53:43.143Z,10.25
2019-05-02T02:56:12.334Z,12.88
2019-05-02T02:58:45.558Z,9.75
2019-05-02T03:01:12.358Z,9.13
2019-05-02T03:03:41.506Z,11.15
2019-05-02T03:06:10.716Z,11.95
2019-05-02T03:08:46.252Z,11.25
2019-05-02T03:11:22.787Z,12.07
2019-05-02T03:14:05.693Z,13.58
2019-05-02T03:16:29.332Z,9.88
2019-05-02T03:18:58.519Z,11.95
2019-05-02T03:21:27.681Z,10.38
2019-05-02T03:24:03.190Z,11.90
2019-05-02T03:26:27.734Z,11.30
2019-05-02T03:28:58.641Z,12.73
2019-05-02T03:31:30.456Z,11.20
2019-05-02T03:34:00.851Z,13.05
2019-05-02T03:36:35.556Z,12.10
2019-05-02T03:39:00.334Z,11.18
2019-05-02T03:41:29.629Z,9.35
2019-05-02T03:44:10.688Z,9.50
2019-05-02T03:46:29.937Z,12.37
2019-05-02T03:49:07.367Z,10.80
2019-05-02T03:51:30.046Z,10.40
2019-05-02T03:54:07.073Z,9.45
2019-05-02T03:56:31.562Z,12.13
2019-05-02T03:59:00.767Z,10.18
2019-05-02T04:01:34.860Z,10.78
2019-05-02T04:04:01.506Z,12.55
2019-05-02T04:06:30.654Z,9.73
2019-05-02T04:09:01.760Z,10.58
2019-05-02T04:11:39.250Z,10.70
2019-05-02T04:14:14.892Z,9.35
2019-05-02T04:16:33.926Z,12.30
2019-05-02T04:19:03.087Z,10.93
2019-05-02T04:21:32.373Z,10.70
2019-05-02T04:24:10.726Z,9.83
2019-05-02T04:26:32.884Z,12.07
2019-05-02T04:29:02.316Z,11.50
2019-05-02T04:31:33.637Z,11.60
2019-05-02T04:34:14.105Z,11.12
2019-05-02T04:36:33.363Z,10.20
2019-05-02T04:39:05.899Z,9.65
2019-05-02T04:41:34.361Z,10.70
2019-05-02T04:44:04.225Z,9.45
2019-05-02T04:46:33.494Z,10.85
2019-05-02T04:49:02.702Z,9.05
2019-05-02T04:51:32.447Z,11.38
2019-05-02T04:54:01.815Z,8.65
2019-05-02T04:56:31.138Z,9.13
2019-05-02T04:59:01.932Z,8.33
2019-05-02T05:01:42.215Z,11.80
2019-05-02T05:04:03.116Z,9.85
2019-05-02T05:06:32.649Z,8.28
2019-05-02T05:09:04.203Z,8.18
2019-05-02T05:11:32.774Z,9.18
2019-05-02T05:14:01.940Z,7.62
2019-05-02T05:16:31.097Z,10.23
2019-05-02T05:19:00.416Z,9.38
2019-05-02T05:21:30.907Z,7.85
2019-05-02T05:24:01.932Z,10.28
2019-05-02T05:26:39.180Z,9.03
2019-05-02T05:29:08.267Z,10.35
2019-05-02T05:31:38.252Z,7.42
2019-05-02T05:34:07.796Z,13.68
2019-05-02T05:36:38.400Z,12.68
2019-05-02T05:39:11.526Z,7.70
2019-05-02T05:41:42.680Z,8.80
2019-05-02T05:44:10.142Z,10.68
2019-05-02T05:46:42.532Z,10.50
2019-05-02T05:49:17.837Z,10.95
2019-05-02T05:51:41.125Z,10.35
2019-05-02T05:54:10.519Z,10.03
2019-05-02T05:56:43.085Z,9.15
2019-05-02T05:59:13.619Z,10.48
2019-05-02T06:01:43.467Z,9.55
2019-05-02T06:04:13.843Z,8.43
2019-05-02T06:06:43.873Z,7.00
2019-05-02T06:09:13.967Z,15.15
2019-05-02T06:11:43.335Z,10.98
2019-05-02T06:14:12.668Z,9.15
2019-05-02T06:16:46.532Z,8.93
2019-05-02T06:19:17.906Z,9.70
2019-05-02T06:21:45.231Z,8.35
2019-05-02T06:24:15.640Z,7.90
2019-05-02T06:26:49.655Z,12.03
2019-05-02T06:29:18.495Z,8.35
2019-05-02T06:31:48.025Z,10.20
2019-05-02T06:34:17.728Z,8.93
2019-05-02T06:36:47.017Z,8.03
2019-05-02T06:39:16.355Z,13.00
2019-05-02T06:41:45.516Z,9.68
2019-05-02T06:44:18.544Z,9.25
2019-05-02T06:46:45.802Z,10.35
2019-05-02T06:49:15.066Z,8.75
2019-05-02T06:51:44.272Z,9.13
2019-05-02T06:54:13.423Z,10.00
2019-05-02T06:56:43.179Z,10.53
2019-05-02T06:59:18.442Z,7.87
2019-05-02T07:01:44.542Z,8.23
2019-05-02T07:04:17.491Z,5.62
2019-05-02T07:06:57.745Z,10.30
2019-05-02T07:09:15.666Z,15.15
2019-05-02T07:11:56.658Z,14.28
2019-05-02T07:14:18.590Z,19.57
2019-05-02T07:16:56.359Z,13.68
2019-05-02T07:19:29.208Z,13.08
2019-05-02T07:22:03.797Z,11.33
2019-05-02T07:24:30.732Z,8.08
2019-05-02T07:27:02.341Z,10.63
2019-05-02T07:29:31.551Z,12.35
2019-05-02T07:32:00.727Z,7.60
2019-05-02T07:34:29.946Z,9.38
2019-05-02T07:36:59.101Z,12.75
2019-05-02T07:39:28.243Z,13.08
2019-05-02T07:42:00.476Z,11.03
2019-05-02T07:44:32.771Z,13.38
2019-05-02T07:47:02.597Z,11.28
2019-05-02T07:49:32.235Z,10.55
2019-05-02T07:52:01.089Z,14.35
2019-05-02T07:54:30.388Z,10.25
2019-05-02T07:57:02.203Z,12.53
2019-05-02T07:59:31.544Z,14.15
2019-05-02T08:02:02.473Z,14.43
2019-05-02T08:04:31.759Z,11.97
2019-05-02T08:07:03.757Z,12.78
2019-05-02T08:09:39.088Z,11.18
2019-05-02T08:12:08.836Z,11.70
2019-05-02T08:14:37.996Z,11.63
2019-05-02T08:17:16.293Z,10.63
2019-05-02T08:19:41.753Z,11.20
2019-05-02T08:22:13.251Z,11.73
2019-05-02T08:24:39.928Z,14.28
2019-05-02T08:27:16.753Z,10.68
2019-05-02T08:29:46.097Z,9.25
2019-05-02T08:32:15.345Z,12.68
2019-05-02T08:34:46.072Z,11.28
2019-05-02T08:37:16.673Z,13.22
2019-05-02T08:39:45.980Z,13.78
2019-05-02T08:42:15.437Z,10.98
2019-05-02T08:44:51.098Z,10.48
2019-05-02T08:47:19.103Z,9.28
2019-05-02T08:49:49.271Z,10.32
2019-05-02T08:52:17.356Z,11.25
2019-05-02T08:54:46.549Z,9.73
2019-05-02T08:57:15.738Z,11.25
2019-05-02T08:59:45.024Z,10.38
2019-05-02T09:02:14.319Z,12.23
2019-05-02T09:04:43.499Z,11.85
2019-05-02T09:07:12.683Z,9.80
2019-05-02T09:09:41.978Z,11.03
2019-05-02T09:12:13.251Z,10.72
2019-05-02T09:14:42.639Z,11.65
2019-05-02T09:17:15.840Z,10.08
2019-05-02T09:19:42.999Z,11.83
2019-05-02T09:22:16.575Z,11.88
2019-05-02T09:24:44.954Z,19.55
2019-05-02T09:27:14.201Z,11.08
2019-05-02T09:29:45.920Z,12.73
2019-05-02T09:32:17.205Z,10.82
2019-05-02T09:34:45.349Z,14.98
2019-05-02T09:37:14.528Z,12.55
2019-05-02T09:39:43.681Z,12.75
2019-05-02T09:42:15.237Z,9.88
2019-05-02T09:44:47.993Z,12.10
2019-05-02T09:47:16.290Z,10.00
2019-05-02T09:49:49.024Z,13.10
2019-05-02T09:52:19.059Z,12.27
2019-05-02T09:54:48.249Z,10.43
2019-05-02T09:57:17.412Z,9.23
2019-05-02T09:59:50.473Z,12.25
2019-05-02T10:02:17.444Z,12.73
2019-05-02T10:04:46.759Z,18.07
2019-05-02T10:07:15.998Z,13.83
2019-05-02T10:09:45.134Z,12.25
2019-05-02T10:12:14.352Z,12.03
2019-05-02T10:14:43.551Z,15.45
2019-05-02T10:17:12.804Z,9.73
2019-05-02T10:19:48.813Z,10.32
2019-05-02T10:22:12.908Z,14.18
2019-05-02T10:24:42.578Z,7.95
2019-05-02T10:27:12.615Z,10.70
2019-05-02T10:29:41.956Z,11.10
2019-05-02T10:32:16.460Z,10.03
2019-05-02T10:34:47.484Z,10.55
2019-05-02T10:37:14.061Z,13.75
2019-05-02T10:39:43.245Z,11.85
2019-05-02T10:42:12.592Z,10.23
2019-05-02T10:44:42.669Z,11.35
2019-05-02T10:47:12.814Z,12.07
2019-05-02T10:49:49.825Z,11.80
2019-05-02T10:52:21.540Z,13.40
2019-05-02T10:54:50.383Z,10.75
2019-05-02T10:57:19.535Z,10.13
2019-05-02T10:59:48.709Z,8.53
2019-05-02T11:02:25.212Z,8.45
2019-05-02T11:04:56.020Z,11.48
2019-05-02T11:07:26.451Z,9.50
2019-05-02T11:09:57.422Z,7.60
2019-05-02T11:12:47.000Z,9.03
2019-05-02T11:15:33.511Z,10.10
2019-05-02T11:18:02.966Z,11.93
2019-05-02T11:20:32.383Z,10.05
2019-05-02T11:23:04.289Z,9.98
2019-05-02T11:25:33.431Z,7.85
2019-05-02T11:28:06.982Z,10.60
2019-05-02T11:30:33.458Z,9.60
2019-05-02T11:33:03.053Z,8.18
2019-05-02T11:35:32.479Z,8.83
2019-05-02T11:38:02.511Z,10.43
2019-05-02T11:40:32.219Z,6.62
2019-05-02T11:43:04.966Z,9.03
2019-05-02T11:45:32.431Z,8.15
2019-05-02T11:48:09.222Z,7.75
2019-05-02T11:50:35.375Z,8.03
2019-05-02T11:53:09.216Z,8.98
2019-05-02T11:55:34.342Z,11.73
2019-05-02T11:58:08.077Z,9.83
2019-05-02T12:00:34.461Z,10.15
2019-05-02T12:03:12.644Z,7.62
2019-05-02T12:05:43.246Z,13.13
2019-05-02T12:08:12.471Z,12.13
2019-05-02T12:10:42.736Z,10.50
2019-05-02T12:13:15.962Z,8.80
2019-05-02T12:15:44.286Z,6.83
2019-05-02T12:18:13.713Z,20.92
2019-05-02T12:20:43.014Z,13.15
2019-05-02T12:23:12.970Z,6.28
2019-05-02T12:25:42.529Z,8.88
2019-05-02T12:28:12.136Z,7.95
2019-05-02T12:30:42.021Z,14.30
2019-05-02T12:33:12.514Z,7.53
2019-05-02T12:35:43.297Z,6.95
2019-05-02T12:38:12.735Z,8.85
2019-05-02T12:40:42.319Z,5.35
2019-05-02T12:43:12.175Z,13.72
2019-05-02T12:45:42.136Z,8.48
2019-05-02T12:48:12.987Z,7.35
2019-05-02T12:50:42.399Z,10.15
2019-05-02T12:53:12.663Z,10.98
2019-05-02T12:55:42.286Z,9.33
2019-05-02T12:58:12.728Z,6.03
2019-05-02T13:00:43.242Z,17.75
2019-05-02T13:03:31.714Z,10.60
2019-05-02T13:06:02.959Z,13.32
2019-05-02T13:08:32.380Z,9.00
2019-05-02T13:11:06.847Z,8.88
2019-05-02T13:13:37.481Z,12.73
2019-05-02T13:16:06.779Z,12.43
2019-05-02T13:18:37.329Z,12.25
2019-05-02T13:21:15.184Z,8.05
2019-05-02T13:23:42.483Z,10.63
2019-05-02T13:26:19.892Z,13.85
2019-05-02T13:28:44.194Z,8.28
2019-05-02T13:31:15.132Z,6.62
2019-05-02T13:33:45.984Z,11.80
2019-05-02T13:36:37.595Z,7.72
2019-05-02T13:39:07.203Z,6.75
2019-05-02T13:41:36.919Z,4.17
2019-05-02T13:44:06.835Z,4.40
2019-05-02T13:46:36.087Z,8.15
2019-05-02T13:49:05.243Z,6.12
2019-05-02T13:51:36.510Z,6.15
2019-05-02T13:54:06.988Z,13.62
2019-05-02T13:56:37.784Z,6.97
2019-05-02T13:59:07.026Z,6.78
2019-05-02T14:01:36.312Z,7.65
2019-05-02T14:04:10.109Z,9.45
2019-05-02T14:06:37.914Z,10.00
2019-05-02T14:09:20.133Z,7.03
2019-05-02T14:11:52.656Z,5.10
2019-05-02T14:14:22.813Z,3.62
2019-05-02T14:16:52.998Z,5.90
2019-05-02T14:19:22.442Z,10.08
2019-05-02T14:21:51.921Z,6.22
2019-05-02T14:24:24.033Z,6.28
2019-05-02T14:26:53.261Z,5.15
2019-05-02T14:29:22.592Z,4.37
2019-05-02T14:31:52.693Z,8.38
2019-05-02T14:34:23.495Z,7.15
2019-05-02T14:36:57.437Z,4.40
2019-05-02T14:39:23.774Z,4.53
2019-05-02T14:41:52.924Z,7.58
2019-05-02T14:44:26.870Z,6.20
2019-05-02T14:46:53.134Z,3.40
2019-05-02T14:49:25.482Z,5.67
2019-05-02T14:51:57.207Z,6.10
2019-05-02T14:54:24.050Z,10.45
2019-05-02T14:56:54.833Z,6.50
2019-05-02T14:59:24.084Z,8.98
2019-05-02T15:01:57.932Z,7.03
2019-05-02T15:04:25.978Z,8.73
2019-05-02T15:06:55.176Z,4.92
2019-05-02T15:09:26.823Z,5.87
2019-05-02T15:11:57.909Z,10.65
2019-05-02T15:14:29.764Z,6.53
2019-05-02T15:16:58.937Z,7.22
2019-05-02T15:19:28.077Z,6.78
2019-05-02T15:21:57.336Z,5.62
2019-05-02T15:24:30.714Z,7.33
2019-05-02T15:26:57.372Z,6.75
2019-05-02T15:29:27.336Z,6.83
2019-05-02T15:32:14.733Z,8.80
2019-05-02T15:35:02.397Z,3.83
2019-05-02T15:37:35.734Z,9.25
2019-05-02T15:42:37.858Z,5.55
2019-05-02T15:45:07.932Z,5.20
2019-05-02T15:47:41.514Z,7.12
2019-05-02T15:50:09.120Z,5.62
2019-05-02T15:52:41.951Z,4.72
2019-05-02T15:55:11.617Z,9.80
2019-05-02T15:57:43.760Z,5.15
2019-05-02T16:00:17.153Z,6.37
2019-05-02T16:02:44.568Z,8.43
2019-05-02T16:05:13.900Z,8.65
2019-05-02T16:07:46.581Z,7.20
2019-05-02T16:10:13.990Z,9.78
2019-05-02T16:12:44.778Z,9.83
2019-05-02T16:15:21.534Z,8.63
2019-05-02T16:17:44.886Z,7.92
2019-05-02T16:20:21.446Z,9.38
2019-05-02T16:22:52.411Z,8.00
2019-05-02T16:25:24.457Z,10.08
2019-05-02T16:27:52.907Z,12.00
2019-05-02T16:30:23.404Z,6.28
2019-05-02T16:32:57.203Z,7.80
2019-05-02T16:35:28.290Z,7.28
2019-05-02T16:37:57.604Z,7.37
2019-05-02T16:40:29.798Z,9.68
2019-05-02T16:42:57.944Z,8.45
2019-05-02T16:45:27.275Z,7.00
2019-05-02T16:48:00.604Z,9.53
2019-05-02T16:50:31.837Z,10.03
2019-05-02T16:52:58.275Z,8.83
2019-05-02T16:55:27.567Z,5.65
2019-05-02T16:58:02.771Z,9.45
2019-05-02T17:00:28.885Z,11.93
2019-05-02T17:02:58.030Z,9.55
2019-05-02T17:05:27.201Z,9.80
2019-05-02T17:08:02.301Z,8.68
2019-05-02T17:10:36.172Z,10.72
2019-05-02T17:13:06.439Z,12.30
2019-05-02T17:15:36.863Z,8.75
2019-05-02T17:18:12.887Z,9.00
2019-05-02T17:20:37.484Z,8.43
2019-05-02T17:23:07.684Z,9.73
2019-05-02T17:25:37.286Z,11.18
2019-05-02T17:28:10.293Z,9.38
2019-05-02T17:30:39.069Z,12.60
2019-05-02T17:33:14.427Z,11.12
2019-05-02T17:35:43.361Z,10.32
2019-05-02T17:38:11.900Z,13.75
2019-05-02T17:40:42.197Z,12.05
2019-05-02T17:43:11.662Z,9.98
2019-05-02T17:45:40.940Z,11.43
2019-05-02T17:48:16.057Z,10.60
2019-05-02T17:50:59.251Z,10.15
2019-05-02T17:53:27.020Z,9.60
2019-05-02T17:55:56.358Z,9.28
2019-05-02T17:58:26.613Z,15.15
2019-05-02T18:01:00.113Z,11.95
2019-05-02T18:03:31.059Z,9.57
2019-05-02T18:05:59.450Z,13.05
2019-05-02T18:08:28.676Z,12.47
2019-05-02T18:11:00.048Z,12.00
2019-05-02T18:13:29.109Z,12.45
2019-05-02T18:15:59.637Z,11.83
2019-05-02T18:18:28.800Z,18.10
2019-05-02T18:20:57.990Z,13.53
2019-05-02T18:23:27.708Z,12.90
2019-05-02T18:26:01.501Z,11.50
2019-05-02T18:28:28.064Z,11.57
2019-05-02T18:31:01.893Z,9.88
2019-05-02T18:33:28.118Z,12.95
2019-05-02T18:35:57.311Z,9.33
2019-05-02T18:38:26.590Z,10.40
2019-05-02T18:41:00.254Z,9.65
2019-05-02T18:43:26.628Z,8.53
2019-05-02T18:45:58.167Z,9.98
2019-05-02T18:48:26.912Z,8.28
2019-05-02T18:50:56.111Z,10.13
2019-05-02T18:53:27.256Z,11.05
2019-05-02T18:55:56.738Z,10.80
2019-05-02T18:58:27.318Z,9.80
2019-05-02T19:00:59.264Z,12.40
2019-05-02T19:03:28.572Z,13.13
2019-05-02T19:05:59.001Z,12.47
2019-05-02T19:08:31.576Z,8.48
2019-05-02T19:11:05.981Z,9.68
2019-05-02T19:13:32.738Z,9.10
2019-05-02T19:16:02.018Z,10.05
2019-05-02T19:18:32.348Z,9.58
2019-05-02T19:21:03.189Z,11.85
2019-05-02T19:23:34.987Z,9.88
2019-05-02T19:26:09.930Z,10.35
2019-05-02T19:28:38.342Z,10.88
2019-05-02T19:31:08.130Z,10.48
2019-05-02T19:33:42.680Z,10.53
2019-05-02T19:36:09.304Z,10.75
2019-05-02T19:38:38.468Z,12.50
2019-05-02T19:41:09.287Z,12.98
2019-05-02T19:43:40.517Z,10.50
2019-05-02T19:46:11.970Z,10.63
2019-05-02T19:48:42.863Z,10.60
2019-05-02T19:51:18.423Z,11.28
2019-05-02T19:53:43.404Z,10.05
2019-05-02T19:56:12.864Z,12.58
2019-05-02T19:58:46.467Z,12.63
2019-05-02T20:01:17.496Z,12.30
2019-05-02T20:03:44.071Z,12.90
2019-05-02T20:06:14.375Z,12.63
2019-05-02T20:08:43.565Z,9.48
2019-05-02T20:11:12.889Z,14.70
2019-05-02T20:13:42.181Z,12.28
2019-05-02T20:16:19.081Z,17.02
2019-05-02T20:18:48.239Z,11.18
2019-05-02T20:21:27.340Z,14.25
2019-05-02T20:23:52.719Z,10.65
2019-05-02T20:26:22.193Z,11.20
2019-05-02T20:28:52.763Z,11.70
2019-05-02T20:31:22.276Z,12.80
2019-05-02T20:33:52.049Z,11.33
2019-05-02T20:36:22.826Z,14.30
2019-05-02T20:38:52.540Z,14.73
2019-05-02T20:41:22.417Z,12.58
2019-05-02T20:43:51.856Z,13.40
2019-05-02T20:46:21.895Z,13.50
2019-05-02T20:48:52.699Z,13.60
2019-05-02T20:51:22.759Z,15.13
2019-05-02T20:53:53.207Z,18.42
2019-05-02T20:56:23.507Z,19.30
2019-05-02T20:58:52.836Z,23.77
2019-05-02T21:01:22.194Z,22.77
2019-05-02T21:03:52.519Z,22.90
2019-05-02T21:06:40.772Z,23.45
2019-05-02T21:09:10.783Z,23.38
2019-05-02T21:11:41.822Z,28.45
2019-05-02T21:14:12.293Z,29.05
2019-05-02T21:16:41.631Z,28.05
2019-05-02T21:19:12.397Z,27.60
2019-05-02T21:21:42.702Z,25.23
2019-05-02T21:24:12.098Z,22.00
2019-05-02T21:26:42.107Z,25.35
2019-05-02T21:29:12.583Z,25.37
2019-05-02T21:31:42.551Z,19.12
2019-05-02T21:34:12.963Z,16.32
2019-05-02T21:36:42.601Z,16.97
2019-05-02T21:39:12.028Z,16.45
2019-05-02T21:41:42.381Z,15.13
2019-05-02T21:44:13.161Z,14.58
2019-05-02T21:46:42.489Z,13.32
2019-05-02T21:49:13.342Z,13.45
2019-05-02T21:51:51.808Z,15.75
2019-05-02T21:54:22.802Z,15.25
2019-05-02T21:56:56.344Z,13.20
2019-05-02T21:59:25.505Z,14.30
2019-05-02T22:01:56.272Z,15.23
2019-05-02T22:04:25.592Z,14.47
2019-05-02T22:06:54.719Z,15.55
2019-05-02T22:09:23.935Z,9.63
2019-05-02T22:11:53.080Z,10.95
2019-05-02T22:14:22.565Z,12.03
2019-05-02T22:16:53.025Z,12.75
2019-05-02T22:19:22.496Z,9.78
2019-05-02T22:21:52.442Z,11.75
2019-05-02T22:24:21.809Z,16.00
2019-05-02T22:26:52.567Z,11.45
2019-05-02T22:29:22.028Z,11.60
2019-05-02T22:31:54.188Z,12.68
2019-05-02T22:34:22.253Z,12.10
2019-05-02T22:36:53.843Z,11.30
2019-05-02T22:39:36.123Z,9.83
2019-05-02T22:42:05.301Z,10.63
2019-05-02T22:44:34.520Z,12.23
2019-05-02T22:47:03.834Z,9.73
2019-05-02T22:49:33.055Z,11.70
2019-05-02T22:52:02.223Z,12.20
2019-05-02T22:54:33.723Z,7.45
2019-05-02T22:57:03.396Z,9.53
2019-05-02T22:59:32.541Z,8.10
2019-05-02T23:02:02.176Z,8.93
2019-05-02T23:04:32.585Z,7.78
2019-05-02T23:07:02.439Z,6.10
2019-05-02T23:09:31.759Z,5.75
2019-05-02T23:12:02.894Z,5.80
2019-05-02T23:14:32.525Z,6.85
2019-05-02T23:17:02.276Z,5.90
2019-05-02T23:19:31.862Z,6.30
2019-05-02T23:22:02.263Z,5.00
2019-05-02T23:24:48.340Z,7.12
2019-05-02T23:27:19.127Z,6.10
2019-05-02T23:29:48.254Z,6.92
2019-05-02T23:32:17.427Z,7.85
2019-05-02T23:34:46.593Z,5.37
2019-05-02T23:37:15.775Z,6.53
2019-05-02T23:39:44.995Z,4.67
2019-05-02T23:42:14.251Z,6.33
2019-05-02T23:44:43.405Z,4.67
2019-05-02T23:47:12.575Z,4.70
2019-05-02T23:49:42.683Z,5.72
2019-05-02T23:52:12.981Z,3.35
2019-05-02T23:54:50.083Z,4.53
2019-05-02T23:57:13.057Z,5.55
2019-05-02T23:59:42.460Z,5.45
